createdAt,value
2019-05-12T00:00:22.129Z,4.00
2019-05-12T00:01:28.569Z,3.90
2019-05-12T00:02:33.009Z,3.80
2019-05-12T00:03:38.886Z,3.80
2019-05-12T00:04:43.462Z,3.80
2019-05-12T00:05:48.412Z,3.80
2019-05-12T00:06:53.075Z,3.80
2019-05-12T00:07:58.890Z,3.70
2019-05-12T00:09:05.684Z,3.70
2019-05-12T00:10:11.504Z,3.70
2019-05-12T00:11:17.851Z,3.60
2019-05-12T00:12:22.574Z,3.60
2019-05-12T00:13:27.978Z,3.60
2019-05-12T00:14:33.090Z,3.50
2019-05-12T00:15:38.462Z,3.50
2019-05-12T00:16:48.940Z,3.50
2019-05-12T00:17:54.004Z,3.50
2019-05-12T00:18:58.781Z,3.50
2019-05-12T00:20:03.273Z,3.40
2019-05-12T00:21:08.845Z,3.40
2019-05-12T00:22:18.116Z,3.30
2019-05-12T00:23:27.730Z,3.30
2019-05-12T00:24:31.008Z,3.30
2019-05-12T00:25:38.680Z,3.30
2019-05-12T00:26:42.888Z,3.30
2019-05-12T00:27:48.533Z,3.20
2019-05-12T00:28:53.455Z,3.20
2019-05-12T00:29:58.237Z,3.20
2019-05-12T00:31:02.617Z,3.20
2019-05-12T00:32:08.564Z,3.20
2019-05-12T00:33:13.123Z,3.20
2019-05-12T00:34:18.553Z,3.20
2019-05-12T00:35:23.176Z,3.10
2019-05-12T00:36:29.308Z,3.10
2019-05-12T00:37:33.894Z,3.00
2019-05-12T00:38:38.915Z,3.00
2019-05-12T00:39:45.017Z,3.00
2019-05-12T00:40:49.789Z,2.90
2019-05-12T00:41:54.435Z,2.90
2019-05-12T00:42:59.213Z,2.90
2019-05-12T00:44:03.593Z,2.90
2019-05-12T00:45:08.508Z,2.90
2019-05-12T00:46:13.188Z,2.80
2019-05-12T00:47:18.776Z,2.80
2019-05-12T00:48:23.254Z,2.80
2019-05-12T00:49:28.970Z,2.80
2019-05-12T00:50:33.673Z,2.70
2019-05-12T00:51:38.627Z,2.70
2019-05-12T00:52:43.339Z,2.80
2019-05-12T00:53:48.312Z,2.70
2019-05-12T00:54:52.755Z,2.70
2019-05-12T00:55:57.949Z,2.70
2019-05-12T00:57:02.560Z,2.70
2019-05-12T00:58:08.239Z,2.70
2019-05-12T00:59:13.267Z,2.70
2019-05-12T01:00:18.345Z,2.70
2019-05-12T01:01:22.960Z,2.60
2019-05-12T01:02:28.634Z,2.60
2019-05-12T01:03:33.150Z,2.60
2019-05-12T01:04:38.236Z,2.70
2019-05-12T01:05:42.718Z,2.60
2019-05-12T01:06:48.616Z,2.60
2019-05-12T01:07:54.360Z,2.60
2019-05-12T01:09:00.221Z,2.60
2019-05-12T01:10:05.151Z,2.60
2019-05-12T01:11:10.049Z,2.60
2019-05-12T01:12:14.494Z,2.60
2019-05-12T01:13:19.333Z,2.60
2019-05-12T01:14:23.805Z,2.50
2019-05-12T01:15:29.055Z,2.50
2019-05-12T01:16:33.442Z,2.40
2019-05-12T01:17:40.378Z,2.40
2019-05-12T01:18:44.323Z,2.40
2019-05-12T01:19:49.040Z,2.40
2019-05-12T01:20:53.506Z,2.40
2019-05-12T01:21:58.793Z,2.30
2019-05-12T01:23:03.303Z,2.30
2019-05-12T01:24:09.040Z,2.30
2019-05-12T01:25:13.721Z,2.20
2019-05-12T01:26:18.430Z,2.20
2019-05-12T01:27:22.804Z,2.20
2019-05-12T01:28:27.950Z,2.20
2019-05-12T01:29:32.422Z,2.10
2019-05-12T01:30:39.006Z,2.10
2019-05-12T01:31:50.491Z,2.00
2019-05-12T01:32:57.453Z,2.10
2019-05-12T01:34:02.489Z,2.00
2019-05-12T01:35:10.240Z,2.00
2019-05-12T01:36:15.011Z,2.00
2019-05-12T01:37:27.836Z,2.00
2019-05-12T01:38:31.746Z,2.00
2019-05-12T01:39:38.325Z,2.00
2019-05-12T01:40:43.083Z,2.00
2019-05-12T01:41:48.837Z,1.90
2019-05-12T01:42:53.340Z,1.90
2019-05-12T01:44:00.044Z,1.90
2019-05-12T01:45:04.644Z,1.90
2019-05-12T01:46:09.530Z,1.90
2019-05-12T01:47:13.883Z,1.90
2019-05-12T01:48:18.657Z,1.90
2019-05-12T01:49:24.119Z,1.90
2019-05-12T01:50:28.978Z,1.90
2019-05-12T01:51:33.401Z,1.90
2019-05-12T01:52:38.646Z,1.80
2019-05-12T01:53:43.423Z,1.80
2019-05-12T01:54:48.448Z,1.80
2019-05-12T01:55:53.011Z,1.80
2019-05-12T01:56:58.647Z,1.80
2019-05-12T01:58:03.066Z,1.80
2019-05-12T01:59:09.810Z,1.80
2019-05-12T02:00:18.145Z,1.90
2019-05-12T02:01:22.566Z,1.90
2019-05-12T02:02:28.576Z,1.80
2019-05-12T02:03:33.697Z,1.80
2019-05-12T02:04:55.908Z,1.80
2019-05-12T02:06:01.276Z,1.80
2019-05-12T02:07:08.336Z,1.70
2019-05-12T02:08:18.568Z,1.70
2019-05-12T02:09:24.861Z,1.70
2019-05-12T02:10:29.200Z,1.60
2019-05-12T02:11:34.013Z,1.60
2019-05-12T02:12:38.561Z,1.60
2019-05-12T02:13:44.884Z,1.60
2019-05-12T02:14:49.248Z,1.60
2019-05-12T02:15:53.955Z,1.60
2019-05-12T02:16:58.456Z,1.60
2019-05-12T02:18:03.263Z,1.60
2019-05-12T02:19:09.063Z,1.60
2019-05-12T02:20:14.772Z,1.50
2019-05-12T02:21:19.195Z,1.50
2019-05-12T02:22:24.015Z,1.50
2019-05-12T02:23:28.901Z,1.50
2019-05-12T02:24:33.789Z,1.50
2019-05-12T02:25:39.208Z,1.50
2019-05-12T02:26:44.212Z,1.50
2019-05-12T02:27:48.694Z,1.40
2019-05-12T02:28:53.456Z,1.40
2019-05-12T02:29:58.583Z,1.50
2019-05-12T02:31:03.787Z,1.50
2019-05-12T02:32:08.331Z,1.50
2019-05-12T02:33:15.923Z,1.40
2019-05-12T02:34:19.672Z,1.40
2019-05-12T02:35:24.856Z,1.40
2019-05-12T02:36:33.980Z,1.40
2019-05-12T02:37:37.414Z,1.40
2019-05-12T02:38:45.075Z,1.30
2019-05-12T02:39:50.176Z,1.30
2019-05-12T02:40:55.439Z,1.30
2019-05-12T02:42:00.387Z,1.30
2019-05-12T02:43:06.088Z,1.30
2019-05-12T02:44:14.617Z,1.30
2019-05-12T02:45:18.051Z,1.30
2019-05-12T02:46:25.606Z,1.30
2019-05-12T02:47:28.962Z,1.30
2019-05-12T02:48:35.645Z,1.30
2019-05-12T02:49:41.024Z,1.30
2019-05-12T02:50:46.493Z,1.30
2019-05-12T02:51:50.932Z,1.30
2019-05-12T02:52:55.851Z,1.20
2019-05-12T02:54:00.247Z,1.20
2019-05-12T02:55:06.383Z,1.20
2019-05-12T02:56:15.162Z,1.20
2019-05-12T02:57:25.211Z,1.20
2019-05-12T02:58:29.551Z,1.30
2019-05-12T02:59:35.652Z,1.30
2019-05-12T03:00:41.081Z,1.30
2019-05-12T03:01:48.891Z,1.40
2019-05-12T03:02:54.709Z,1.40
2019-05-12T03:04:01.610Z,1.40
2019-05-12T03:05:07.336Z,1.50
2019-05-12T03:06:15.111Z,1.50
2019-05-12T03:07:20.870Z,1.60
2019-05-12T03:08:26.092Z,1.60
2019-05-12T03:09:35.151Z,1.70
2019-05-12T03:10:38.574Z,1.70
2019-05-12T03:11:44.828Z,1.70
2019-05-12T03:12:49.734Z,1.70
2019-05-12T03:13:54.819Z,1.60
2019-05-12T03:15:00.939Z,1.70
2019-05-12T03:16:07.116Z,1.70
2019-05-12T03:17:15.332Z,1.70
2019-05-12T03:18:21.025Z,1.70
2019-05-12T03:19:25.762Z,1.80
2019-05-12T03:20:30.164Z,1.80
2019-05-12T03:21:35.661Z,1.90
2019-05-12T03:22:40.528Z,1.90
2019-05-12T03:23:45.210Z,1.90
2019-05-12T03:25:06.450Z,2.00
2019-05-12T03:25:57.463Z,2.00
2019-05-12T03:27:04.378Z,2.10
2019-05-12T03:28:09.490Z,2.10
2019-05-12T03:29:15.022Z,2.10
2019-05-12T03:30:20.112Z,2.20
2019-05-12T03:31:31.129Z,2.20
2019-05-12T03:32:31.203Z,2.20
2019-05-12T03:33:42.744Z,2.30
2019-05-12T03:34:46.891Z,2.30
2019-05-12T03:35:53.178Z,2.30
2019-05-12T03:36:58.903Z,2.30
2019-05-12T03:38:04.385Z,2.30
2019-05-12T03:39:10.119Z,2.30
2019-05-12T03:40:15.348Z,2.30
2019-05-12T03:41:20.250Z,2.40
2019-05-12T03:42:25.261Z,2.40
2019-05-12T03:43:30.468Z,2.30
2019-05-12T03:44:35.335Z,2.40
2019-05-12T03:45:40.170Z,2.40
2019-05-12T03:46:45.533Z,2.40
2019-05-12T03:47:50.657Z,2.40
2019-05-12T03:48:56.385Z,2.40
2019-05-12T03:50:04.338Z,2.40
2019-05-12T03:51:07.161Z,2.40
2019-05-12T03:52:15.055Z,2.40
2019-05-12T03:53:18.467Z,2.30
2019-05-12T03:54:24.360Z,2.30
2019-05-12T03:55:36.122Z,2.30
2019-05-12T03:56:35.769Z,2.30
2019-05-12T03:57:40.179Z,2.30
2019-05-12T03:58:45.421Z,2.30
2019-05-12T03:59:49.895Z,2.40
2019-05-12T04:00:55.411Z,2.40
2019-05-12T04:02:00.352Z,2.50
2019-05-12T04:03:05.285Z,2.50
2019-05-12T04:04:10.068Z,2.50
2019-05-12T04:05:15.965Z,2.60
2019-05-12T04:06:20.395Z,2.60
2019-05-12T04:07:25.059Z,2.70
2019-05-12T04:08:29.557Z,2.70
2019-05-12T04:09:35.870Z,2.70
2019-05-12T04:10:40.334Z,2.80
2019-05-12T04:11:45.134Z,2.80
2019-05-12T04:12:49.575Z,2.80
2019-05-12T04:13:55.116Z,2.90
2019-05-12T04:14:59.677Z,2.90
2019-05-12T04:16:05.519Z,3.00
2019-05-12T04:17:14.765Z,3.00
2019-05-12T04:18:16.946Z,3.00
2019-05-12T04:19:40.313Z,3.00
2019-05-12T04:20:45.548Z,3.10
2019-05-12T04:21:49.902Z,3.10
2019-05-12T04:22:54.830Z,3.20
2019-05-12T04:23:59.199Z,3.30
2019-05-12T04:25:06.182Z,3.40
2019-05-12T04:26:13.376Z,3.50
2019-05-12T04:27:16.936Z,3.60
2019-05-12T04:28:24.364Z,3.70
2019-05-12T04:29:27.761Z,3.80
2019-05-12T04:30:35.150Z,3.90
2019-05-12T04:31:38.982Z,3.90
2019-05-12T04:32:45.143Z,4.00
2019-05-12T04:33:49.953Z,4.10
2019-05-12T04:34:55.073Z,4.20
2019-05-12T04:36:00.102Z,4.20
2019-05-12T04:37:04.678Z,4.30
2019-05-12T04:38:09.725Z,4.40
2019-05-12T04:39:14.855Z,4.40
2019-05-12T04:40:19.822Z,4.50
2019-05-12T04:41:26.052Z,4.50
2019-05-12T04:42:30.770Z,4.50
2019-05-12T04:43:35.530Z,4.50
2019-05-12T04:44:40.427Z,4.40
2019-05-12T04:45:45.565Z,4.40
2019-05-12T04:46:50.382Z,4.50
2019-05-12T04:47:55.311Z,5.10
2019-05-12T04:49:00.193Z,5.90
2019-05-12T04:50:05.766Z,6.80
2019-05-12T04:51:10.919Z,7.70
2019-05-12T04:52:16.186Z,8.60
2019-05-12T04:53:20.908Z,9.40
2019-05-12T04:54:25.441Z,10.30
2019-05-12T04:55:30.417Z,11.10
2019-05-12T04:56:36.043Z,11.90
2019-05-12T04:57:40.990Z,12.80
2019-05-12T04:58:45.692Z,13.40
2019-05-12T04:59:50.473Z,14.10
2019-05-12T05:00:55.074Z,14.70
2019-05-12T05:01:59.828Z,15.20
2019-05-12T05:03:05.236Z,15.70
2019-05-12T05:04:10.563Z,16.00
2019-05-12T05:05:15.404Z,16.40
2019-05-12T05:06:20.557Z,16.90
2019-05-12T05:07:25.059Z,17.30
2019-05-12T05:08:29.868Z,17.60
2019-05-12T05:09:35.136Z,17.90
2019-05-12T05:10:40.029Z,17.80
2019-05-12T05:11:45.276Z,17.60
2019-05-12T05:12:50.367Z,17.00
2019-05-12T05:13:55.118Z,16.50
2019-05-12T05:15:00.039Z,16.00
2019-05-12T05:16:05.382Z,15.50
2019-05-12T05:17:10.570Z,15.10
2019-05-12T05:18:15.394Z,14.90
2019-05-12T05:19:20.171Z,14.60
2019-05-12T05:20:24.804Z,14.30
2019-05-12T05:21:29.633Z,13.90
2019-05-12T05:22:34.144Z,13.60
2019-05-12T05:23:39.031Z,13.30
2019-05-12T05:24:44.410Z,12.90
2019-05-12T05:25:49.273Z,12.50
2019-05-12T05:26:54.245Z,12.20
2019-05-12T05:27:59.115Z,11.80
2019-05-12T05:29:04.454Z,11.50
2019-05-12T05:30:09.606Z,11.30
2019-05-12T05:31:16.117Z,11.00
2019-05-12T05:32:23.169Z,10.80
2019-05-12T05:33:27.454Z,10.70
2019-05-12T05:34:34.249Z,10.60
2019-05-12T05:35:39.958Z,10.40
2019-05-12T05:36:51.016Z,10.30
2019-05-12T05:37:59.308Z,10.30
2019-05-12T05:39:06.601Z,10.10
2019-05-12T05:40:13.889Z,10.20
2019-05-12T05:41:18.133Z,10.40
2019-05-12T05:42:30.724Z,10.50
2019-05-12T05:43:29.209Z,10.60
2019-05-12T05:44:37.737Z,10.50
2019-05-12T05:45:40.188Z,10.50
2019-05-12T05:46:49.991Z,10.50
2019-05-12T05:47:51.436Z,10.60
2019-05-12T05:48:56.239Z,10.80
2019-05-12T05:50:00.949Z,11.00
2019-05-12T05:51:08.922Z,11.00
2019-05-12T05:52:34.216Z,11.00
2019-05-12T05:53:37.555Z,11.00
2019-05-12T05:54:43.985Z,11.00
2019-05-12T05:55:50.332Z,10.90
2019-05-12T05:56:59.528Z,11.00
2019-05-12T05:58:07.841Z,11.00
2019-05-12T05:59:07.929Z,11.00
2019-05-12T06:00:22.573Z,11.00
2019-05-12T06:01:19.844Z,10.90
2019-05-12T06:02:31.397Z,10.80
2019-05-12T06:03:31.010Z,10.90
2019-05-12T06:04:39.031Z,11.10
2019-05-12T06:05:43.356Z,11.60
2019-05-12T06:06:50.914Z,12.40
2019-05-12T06:07:54.661Z,13.30
2019-05-12T06:09:00.365Z,14.30
2019-05-12T06:10:05.826Z,15.50
2019-05-12T06:11:14.716Z,16.60
2019-05-12T06:12:17.588Z,17.70
2019-05-12T06:13:29.952Z,18.80
2019-05-12T06:14:28.678Z,19.50
2019-05-12T06:15:38.817Z,20.20
2019-05-12T06:16:43.250Z,20.70
2019-05-12T06:17:47.488Z,21.30
2019-05-12T06:18:54.319Z,21.90
2019-05-12T06:19:58.508Z,22.20
2019-05-12T06:21:03.538Z,22.70
2019-05-12T06:22:09.119Z,23.10
2019-05-12T06:23:15.436Z,23.20
2019-05-12T06:24:23.910Z,23.50
2019-05-12T06:25:43.547Z,23.60
2019-05-12T06:26:35.816Z,23.60
2019-05-12T06:27:40.865Z,23.50
2019-05-12T06:28:45.555Z,23.50
2019-05-12T06:29:52.397Z,23.30
2019-05-12T06:30:58.334Z,23.20
2019-05-12T06:32:06.263Z,23.30
2019-05-12T06:33:09.508Z,23.40
2019-05-12T06:34:20.638Z,23.50
2019-05-12T06:35:20.966Z,23.60
2019-05-12T06:36:27.318Z,23.60
2019-05-12T06:37:33.869Z,23.30
2019-05-12T06:38:40.439Z,23.50
2019-05-12T06:39:45.335Z,23.50
2019-05-12T06:40:50.047Z,23.50
2019-05-12T06:41:57.076Z,23.60
2019-05-12T06:43:01.134Z,23.80
2019-05-12T06:44:08.814Z,23.70
2019-05-12T06:45:14.151Z,23.80
2019-05-12T06:46:21.160Z,24.00
2019-05-12T06:47:25.321Z,24.20
2019-05-12T06:48:30.343Z,24.60
2019-05-12T06:49:35.285Z,24.60
2019-05-12T06:50:40.727Z,24.70
2019-05-12T06:51:45.596Z,25.00
2019-05-12T06:52:50.240Z,25.30
2019-05-12T06:53:55.183Z,25.40
2019-05-12T06:54:59.814Z,25.70
2019-05-12T06:56:04.662Z,25.20
2019-05-12T06:57:21.404Z,24.40
2019-05-12T06:58:26.269Z,23.60
2019-05-12T06:59:23.775Z,22.60
2019-05-12T07:00:30.780Z,21.20
2019-05-12T07:01:35.400Z,20.30
2019-05-12T07:02:49.268Z,20.00
2019-05-12T07:03:47.056Z,19.70
2019-05-12T07:04:57.252Z,19.40
2019-05-12T07:05:58.227Z,19.10
2019-05-12T07:07:03.621Z,18.90
2019-05-12T07:08:08.298Z,18.90
2019-05-12T07:09:25.116Z,19.20
2019-05-12T07:10:38.526Z,19.30
2019-05-12T07:11:41.525Z,19.80
2019-05-12T07:12:43.487Z,20.40
2019-05-12T07:13:43.615Z,20.90
2019-05-12T07:14:48.987Z,20.90
2019-05-12T07:15:56.133Z,20.70
2019-05-12T07:17:06.215Z,20.20
2019-05-12T07:18:14.749Z,19.60
2019-05-12T07:19:22.743Z,19.20
2019-05-12T07:20:29.094Z,18.90
2019-05-12T07:21:33.515Z,18.60
2019-05-12T07:22:44.505Z,18.50
2019-05-12T07:23:44.743Z,18.70
2019-05-12T07:24:51.766Z,19.00
2019-05-12T07:25:56.066Z,18.70
2019-05-12T07:27:04.364Z,18.80
2019-05-12T07:28:08.264Z,18.90
2019-05-12T07:29:13.505Z,18.90
2019-05-12T07:30:27.208Z,18.80
2019-05-12T07:31:33.701Z,18.30
2019-05-12T07:32:38.372Z,18.00
2019-05-12T07:33:45.963Z,17.70
2019-05-12T07:34:49.530Z,17.20
2019-05-12T07:36:01.361Z,16.90
2019-05-12T07:37:04.224Z,16.70
2019-05-12T07:38:12.037Z,16.50
2019-05-12T07:39:17.638Z,16.40
2019-05-12T07:40:25.383Z,16.30
2019-05-12T07:41:34.028Z,16.70
2019-05-12T07:42:39.591Z,17.00
2019-05-12T07:43:50.633Z,17.20
2019-05-12T07:44:58.005Z,17.10
2019-05-12T07:46:07.038Z,17.00
2019-05-12T07:47:10.546Z,17.20
2019-05-12T07:48:15.310Z,17.00
2019-05-12T07:49:22.700Z,16.90
2019-05-12T07:50:27.373Z,16.80
2019-05-12T07:51:38.389Z,16.70
2019-05-12T07:52:38.814Z,16.50
2019-05-12T07:53:46.798Z,16.40
2019-05-12T07:54:52.941Z,16.20
2019-05-12T07:55:56.457Z,15.70
2019-05-12T07:57:03.804Z,15.20
2019-05-12T07:58:13.696Z,14.90
2019-05-12T07:59:13.926Z,14.60
2019-05-12T08:00:23.568Z,14.20
2019-05-12T08:01:25.070Z,14.00
2019-05-12T08:02:31.757Z,13.80
2019-05-12T08:03:37.566Z,13.80
2019-05-12T08:04:43.995Z,13.70
2019-05-12T08:05:51.440Z,13.80
2019-05-12T08:06:55.516Z,13.90
2019-05-12T08:08:00.614Z,13.70
2019-05-12T08:09:08.182Z,13.60
2019-05-12T08:10:20.066Z,13.60
2019-05-12T08:11:20.137Z,14.20
2019-05-12T08:12:24.982Z,14.80
2019-05-12T08:13:31.305Z,15.60
2019-05-12T08:14:36.281Z,16.10
2019-05-12T08:15:45.822Z,16.00
2019-05-12T08:16:47.564Z,15.90
2019-05-12T08:17:55.346Z,15.80
2019-05-12T08:18:59.096Z,15.90
2019-05-12T08:20:04.486Z,15.60
2019-05-12T08:21:09.433Z,15.30
2019-05-12T08:22:18.909Z,14.90
2019-05-12T08:23:23.264Z,14.70
2019-05-12T08:24:27.873Z,14.10
2019-05-12T08:25:34.287Z,13.50
2019-05-12T08:26:39.333Z,13.20
2019-05-12T08:27:45.122Z,12.80
2019-05-12T08:28:50.518Z,12.70
2019-05-12T08:30:01.198Z,13.10
2019-05-12T08:31:03.618Z,13.50
2019-05-12T08:32:09.856Z,13.70
2019-05-12T08:33:14.935Z,13.60
2019-05-12T08:34:19.730Z,13.40
2019-05-12T08:35:29.392Z,13.30
2019-05-12T08:36:33.069Z,13.20
2019-05-12T08:37:37.652Z,13.50
2019-05-12T08:38:44.362Z,14.00
2019-05-12T08:39:53.287Z,14.60
2019-05-12T08:40:55.037Z,15.00
2019-05-12T08:41:59.778Z,15.30
2019-05-12T08:43:08.173Z,15.60
2019-05-12T08:44:13.399Z,15.90
2019-05-12T08:45:27.381Z,16.20
2019-05-12T08:46:24.498Z,16.60
2019-05-12T08:47:35.543Z,17.10
2019-05-12T08:48:35.920Z,17.50
2019-05-12T08:49:49.985Z,17.70
2019-05-12T08:50:47.099Z,17.70
2019-05-12T08:51:55.762Z,17.50
2019-05-12T08:52:58.132Z,17.50
2019-05-12T08:54:07.845Z,17.70
2019-05-12T08:55:09.938Z,18.10
2019-05-12T08:56:19.346Z,18.60
2019-05-12T08:57:21.242Z,18.90
2019-05-12T08:58:33.524Z,19.00
2019-05-12T08:59:34.188Z,18.80
2019-05-12T09:00:46.558Z,18.40
2019-05-12T09:01:47.879Z,17.80
2019-05-12T09:02:53.924Z,17.30
2019-05-12T09:04:00.370Z,16.80
2019-05-12T09:05:05.361Z,16.40
2019-05-12T09:06:15.587Z,16.00
2019-05-12T09:07:19.814Z,15.70
2019-05-12T09:08:24.938Z,15.70
2019-05-12T09:09:29.718Z,15.50
2019-05-12T09:10:34.569Z,15.30
2019-05-12T09:11:39.473Z,15.40
2019-05-12T09:12:44.487Z,15.90
2019-05-12T09:13:52.783Z,16.60
2019-05-12T09:14:55.985Z,17.20
2019-05-12T09:16:00.800Z,17.40
2019-05-12T09:17:07.127Z,17.60
2019-05-12T09:18:14.351Z,17.50
2019-05-12T09:19:24.070Z,17.40
2019-05-12T09:20:25.934Z,17.50
2019-05-12T09:21:32.046Z,17.40
2019-05-12T09:22:37.219Z,17.20
2019-05-12T09:23:44.933Z,17.00
2019-05-12T09:24:48.755Z,16.80
2019-05-12T09:25:57.068Z,16.50
2019-05-12T09:27:06.996Z,16.30
2019-05-12T09:28:06.502Z,16.10
2019-05-12T09:29:13.967Z,15.60
2019-05-12T09:30:28.301Z,15.50
2019-05-12T09:31:33.802Z,15.40
2019-05-12T09:32:43.830Z,15.70
2019-05-12T09:33:47.122Z,15.80
2019-05-12T09:34:57.879Z,15.70
2019-05-12T09:35:58.835Z,15.70
2019-05-12T09:37:04.237Z,15.70
2019-05-12T09:38:11.437Z,15.60
2019-05-12T09:39:16.441Z,15.40
2019-05-12T09:40:22.814Z,15.40
2019-05-12T09:41:27.555Z,15.50
2019-05-12T09:42:33.447Z,15.70
2019-05-12T09:43:40.392Z,15.80
2019-05-12T09:44:44.854Z,16.10
2019-05-12T09:45:53.961Z,16.20
2019-05-12T09:46:55.997Z,16.30
2019-05-12T09:48:04.842Z,16.50
2019-05-12T09:49:07.342Z,16.80
2019-05-12T09:50:18.234Z,16.90
2019-05-12T09:51:19.804Z,17.00
2019-05-12T09:52:27.154Z,17.20
2019-05-12T09:53:30.912Z,17.30
2019-05-12T09:54:40.789Z,17.40
2019-05-12T09:55:43.809Z,17.10
2019-05-12T09:56:49.958Z,16.80
2019-05-12T09:57:55.711Z,16.30
2019-05-12T09:59:04.110Z,15.70
2019-05-12T10:00:07.825Z,15.30
2019-05-12T10:01:13.980Z,14.90
2019-05-12T10:02:20.945Z,14.60
2019-05-12T10:03:25.845Z,14.70
2019-05-12T10:04:30.527Z,14.80
2019-05-12T10:05:40.792Z,15.00
2019-05-12T10:06:44.435Z,15.00
2019-05-12T10:07:49.301Z,14.90
2019-05-12T10:08:54.890Z,14.60
2019-05-12T10:10:00.095Z,14.30
2019-05-12T10:11:05.062Z,14.30
2019-05-12T10:12:10.161Z,14.40
2019-05-12T10:13:15.353Z,14.50
2019-05-12T10:14:20.251Z,14.50
2019-05-12T10:15:28.657Z,14.50
2019-05-12T10:16:33.416Z,14.60
2019-05-12T10:17:38.122Z,14.70
2019-05-12T10:18:51.020Z,14.70
2019-05-12T10:19:54.187Z,14.80
2019-05-12T10:20:56.179Z,14.90
2019-05-12T10:22:00.727Z,15.00
2019-05-12T10:23:10.043Z,15.10
2019-05-12T10:24:12.064Z,15.30
2019-05-12T10:25:17.268Z,15.50
2019-05-12T10:26:21.940Z,15.70
2019-05-12T10:27:31.796Z,15.60
2019-05-12T10:28:33.133Z,15.60
2019-05-12T10:29:37.952Z,15.60
2019-05-12T10:30:47.057Z,15.50
2019-05-12T10:31:49.269Z,15.50
2019-05-12T10:32:54.066Z,15.40
2019-05-12T10:34:17.342Z,15.40
2019-05-12T10:35:24.544Z,15.60
2019-05-12T10:36:30.694Z,15.70
2019-05-12T10:37:35.630Z,15.90
2019-05-12T10:38:40.758Z,15.90
2019-05-12T10:39:46.108Z,15.90
2019-05-12T10:40:51.476Z,15.80
2019-05-12T10:41:56.018Z,15.80
2019-05-12T10:43:01.261Z,15.90
2019-05-12T10:44:06.114Z,16.00
2019-05-12T10:45:17.121Z,16.20
2019-05-12T10:46:18.318Z,16.30
2019-05-12T10:47:24.774Z,16.20
2019-05-12T10:48:29.548Z,16.00
2019-05-12T10:49:34.648Z,16.00
2019-05-12T10:50:39.135Z,15.90
2019-05-12T10:51:47.569Z,15.60
2019-05-12T10:52:53.768Z,15.10
2019-05-12T10:54:07.749Z,15.00
2019-05-12T10:55:05.717Z,14.90
2019-05-12T10:56:13.303Z,15.00
2019-05-12T10:57:17.214Z,15.00
2019-05-12T10:58:24.442Z,15.00
2019-05-12T10:59:33.133Z,15.00
2019-05-12T11:00:35.218Z,15.00
2019-05-12T11:01:47.140Z,14.90
2019-05-12T11:02:46.994Z,14.70
2019-05-12T11:03:52.279Z,14.60
2019-05-12T11:04:57.588Z,14.60
2019-05-12T11:06:04.933Z,14.70
2019-05-12T11:07:08.713Z,14.70
2019-05-12T11:08:14.469Z,15.00
2019-05-12T11:09:21.208Z,15.20
2019-05-12T11:10:25.927Z,15.30
2019-05-12T11:11:32.860Z,15.40
2019-05-12T11:12:37.110Z,15.20
2019-05-12T11:13:48.620Z,15.30
2019-05-12T11:14:48.951Z,15.40
2019-05-12T11:15:54.577Z,15.40
2019-05-12T11:17:02.024Z,15.50
2019-05-12T11:18:13.034Z,15.30
2019-05-12T11:19:17.574Z,15.30
2019-05-12T11:20:25.056Z,15.10
2019-05-12T11:21:29.389Z,14.90
2019-05-12T11:22:34.543Z,14.80
2019-05-12T11:23:39.038Z,14.70
2019-05-12T11:24:44.513Z,14.60
2019-05-12T11:25:49.234Z,14.60
2019-05-12T11:26:54.213Z,14.60
2019-05-12T11:27:58.921Z,14.60
2019-05-12T11:29:03.998Z,14.70
2019-05-12T11:30:08.427Z,14.80
2019-05-12T11:31:16.966Z,14.70
2019-05-12T11:32:23.228Z,14.80
2019-05-12T11:33:28.632Z,14.80
2019-05-12T11:34:45.839Z,14.80
2019-05-12T11:35:54.166Z,14.80
2019-05-12T11:36:58.395Z,14.70
2019-05-12T11:38:04.551Z,14.80
2019-05-12T11:39:09.279Z,14.80
2019-05-12T11:40:14.948Z,14.80
2019-05-12T11:41:20.345Z,14.70
2019-05-12T11:42:25.552Z,14.60
2019-05-12T11:43:30.254Z,14.50
2019-05-12T11:44:35.269Z,14.50
2019-05-12T11:45:39.744Z,14.50
2019-05-12T11:46:45.546Z,14.40
2019-05-12T11:47:50.077Z,14.40
2019-05-12T11:48:55.070Z,14.40
2019-05-12T11:50:05.033Z,14.30
2019-05-12T11:51:06.513Z,14.30
2019-05-12T11:52:18.331Z,14.30
2019-05-12T11:53:21.763Z,14.30
2019-05-12T11:54:26.311Z,14.40
2019-05-12T11:55:31.885Z,14.30
2019-05-12T11:56:40.247Z,14.30
2019-05-12T11:57:45.965Z,14.30
2019-05-12T11:58:53.656Z,14.40
2019-05-12T12:00:01.056Z,14.60
2019-05-12T12:01:08.279Z,14.80
2019-05-12T12:02:13.450Z,15.00
2019-05-12T12:03:18.479Z,15.20
2019-05-12T12:04:24.778Z,15.50
2019-05-12T12:05:29.244Z,15.80
2019-05-12T12:06:34.408Z,16.10
2019-05-12T12:07:47.838Z,16.20
2019-05-12T12:08:46.670Z,16.30
2019-05-12T12:09:58.013Z,16.30
2019-05-12T12:10:57.962Z,16.40
2019-05-12T12:12:07.124Z,16.60
2019-05-12T12:13:09.167Z,16.80
2019-05-12T12:14:14.481Z,16.90
2019-05-12T12:15:20.536Z,17.00
2019-05-12T12:16:26.896Z,17.10
2019-05-12T12:17:35.683Z,17.00
2019-05-12T12:18:39.515Z,16.80
2019-05-12T12:19:46.915Z,16.60
2019-05-12T12:20:57.127Z,16.40
2019-05-12T12:21:57.801Z,16.30
2019-05-12T12:23:08.766Z,16.10
2019-05-12T12:24:08.990Z,16.00
2019-05-12T12:25:15.751Z,15.80
2019-05-12T12:26:30.024Z,15.60
2019-05-12T12:27:31.930Z,15.50
2019-05-12T12:28:36.967Z,15.40
2019-05-12T12:29:43.717Z,15.20
2019-05-12T12:30:52.584Z,15.10
2019-05-12T12:31:55.343Z,15.20
2019-05-12T12:33:00.525Z,15.10
2019-05-12T12:34:05.294Z,15.00
2019-05-12T12:35:14.967Z,15.10
2019-05-12T12:36:20.837Z,15.10
2019-05-12T12:37:25.704Z,15.00
2019-05-12T12:38:30.303Z,15.00
2019-05-12T12:39:35.410Z,15.00
2019-05-12T12:40:39.916Z,15.10
2019-05-12T12:41:53.978Z,15.10
2019-05-12T12:42:53.708Z,15.20
2019-05-12T12:43:58.754Z,15.20
2019-05-12T12:45:16.570Z,15.20
2019-05-12T12:46:24.586Z,15.10
2019-05-12T12:47:29.138Z,15.10
2019-05-12T12:48:34.142Z,15.10
2019-05-12T12:49:39.956Z,15.20
2019-05-12T12:50:46.026Z,15.30
2019-05-12T12:51:50.675Z,15.40
2019-05-12T12:52:56.595Z,15.30
2019-05-12T12:54:03.159Z,15.40
2019-05-12T12:55:08.582Z,15.30
2019-05-12T12:56:18.080Z,15.10
2019-05-12T12:57:20.602Z,15.00
2019-05-12T12:58:31.111Z,14.80
2019-05-12T12:59:33.447Z,14.60
2019-05-12T13:00:47.309Z,14.40
2019-05-12T13:01:45.973Z,14.30
2019-05-12T13:02:50.695Z,14.30
2019-05-12T13:03:59.335Z,14.20
2019-05-12T13:05:02.395Z,14.30
2019-05-12T13:06:07.365Z,14.30
2019-05-12T13:07:13.731Z,14.40
2019-05-12T13:08:21.596Z,14.60
2019-05-12T13:09:35.268Z,14.60
2019-05-12T13:10:46.305Z,14.60
2019-05-12T13:11:47.018Z,14.60
2019-05-12T13:12:58.647Z,14.70
2019-05-12T13:13:58.290Z,14.70
2019-05-12T13:15:03.879Z,14.80
2019-05-12T13:16:08.516Z,14.90
2019-05-12T13:17:14.885Z,14.90
2019-05-12T13:18:27.586Z,15.00
2019-05-12T13:19:27.397Z,15.20
2019-05-12T13:20:34.377Z,15.30
2019-05-12T13:21:40.595Z,15.30
2019-05-12T13:22:45.259Z,15.30
2019-05-12T13:23:51.151Z,15.40
2019-05-12T13:24:58.101Z,15.60
2019-05-12T13:26:04.347Z,15.90
2019-05-12T13:27:09.400Z,16.10
2019-05-12T13:28:19.157Z,16.30
2019-05-12T13:29:28.285Z,16.30
2019-05-12T13:30:28.021Z,16.30
2019-05-12T13:31:33.291Z,16.20
2019-05-12T13:32:38.784Z,16.20
2019-05-12T13:33:44.228Z,16.20
2019-05-12T13:34:51.819Z,16.10
2019-05-12T13:35:57.509Z,16.20
2019-05-12T13:49:14.626Z,15.20
2019-05-12T13:50:26.327Z,15.10
2019-05-12T13:51:25.663Z,14.90
2019-05-12T13:52:33.110Z,14.80
2019-05-12T13:53:40.273Z,14.70
2019-05-12T13:54:43.791Z,14.70
2019-05-12T13:55:49.732Z,14.60
2019-05-12T13:56:55.003Z,14.60
2019-05-12T13:57:59.509Z,14.50
2019-05-12T15:05:19.017Z,17.00
2019-05-12T15:06:25.796Z,17.10
2019-05-12T15:07:30.346Z,17.10
2019-05-12T15:08:40.217Z,17.10
2019-05-12T15:09:42.694Z,16.90
2019-05-12T15:10:47.723Z,16.90
2019-05-12T15:11:53.481Z,16.80
2019-05-12T15:12:59.494Z,16.90
2019-05-12T15:14:03.929Z,17.00
2019-05-12T15:15:14.215Z,17.10
2019-05-12T15:16:15.661Z,17.10
2019-05-12T15:17:23.041Z,17.20
2019-05-12T15:18:26.645Z,17.20
2019-05-12T15:19:33.501Z,17.00
2019-05-12T15:20:41.595Z,17.00
2019-05-12T15:21:44.364Z,17.00
2019-05-12T15:22:51.779Z,17.00
2019-05-12T15:23:55.382Z,17.10
2019-05-12T15:25:02.686Z,17.10
2019-05-12T15:26:09.506Z,17.10
2019-05-12T15:27:13.484Z,17.10
2019-05-12T15:28:18.568Z,17.00
2019-05-12T15:29:23.447Z,16.80
2019-05-12T15:30:28.583Z,16.70
2019-05-12T15:31:33.760Z,16.60
2019-05-12T15:32:38.999Z,16.40
2019-05-12T15:33:44.068Z,16.30
2019-05-12T15:34:49.209Z,16.20
2019-05-12T15:35:54.676Z,16.10